METAR AND TAF INFORMATION
METAR FOR LTCM
ADDS - METARS form results

(1101 UTC 23 January 2019)
Data provider http://aviationweather.gov/metar/data/
 
METAR text: LTCM 231050Z 12008KT CAVOK 15/03 Q1011
Conditions at: LTCM (SINOP AIRPORT , TR) observed 1050 UTC 23 January 2019
Temperature: 15.0°C (59°F)
Dewpoint: 3.0°C (37°F) [RH = 44%]
Pressure (altimeter): 29.85 inches Hg (1011.0 mb)
Winds: from the ESE (120 degrees) at 9 MPH (8 knots; 4.1 m/s)
Visibility: 6 or more miles (10+ km)
Ceiling: ceiling and visibility are OK
Clouds: unknown
Weather: no significant weather observed at this time

Forecast for: LTCM (SINOP AIRPORT , TR)
Text: TAF LTCM 231040Z 2312/2321 15009KT CAVOK
Forecast period: 1200 to 2100 UTC 23 January 2019
Forecast type: FROM: standard forecast or significant change
Winds: from the SSE (150 degrees) at 10 MPH (9 knots; 4.6 m/s)
Visibility: 6 or more miles 10+ km)
Ceiling: unknown
Clouds: missing
Weather: NSW  (no significant weather)

 AIRPORT MAP

 RUNWAY INFORMATION

 AIRPORT FREQUENCIES

 AIRPORT NEAR NAVIGATION AIDS
Type VOR-DME Name Sinop Frequency 114000 KHZ
Type NDB Name Sinop Frequency 465 KHZ



Copyright © 2011 - 2018 BirgenAir Virtual Airlines. All rights reserved. Developed by Goktug Unver